St. Catharines Fifth St

*Note: All times are displayed in the local standard time of the station location.
**Rain - Equipment is designed to accurately record liquid precipitation; under conditions when precipitation is not in liquid form, the data displayed may not properly reflect rainfall values.

Date Max Temp
(°C)
Min Temp
(°C)
Avg Temp
(°C)
Rain (mm) Avg RH (%)
Mon, Apr 23, 2018 19.1 -1.8 7.5 0.0 59.5
Sun, Apr 22, 2018 16.6 -3.1 7.5 0.0 50.3
Sat, Apr 21, 2018 14.4 -4.3 5.4 0.0 56.3
Fri, Apr 20, 2018 8.5 -2.4 2.7 0.0 61.1
Thu, Apr 19, 2018 4.5 0.5 2.1 0.0 67.2
Wed, Apr 18, 2018 4.8 0.5 1.9 0.0 78.5
Tue, Apr 17, 2018 1.8 -1.2 0.5 0.0 77.0
DateTime Avg Temp (°C) Rain (mm) RH (%)
Tue, Apr 24, 2018 18:00 12.6 0.6 81.0
Tue, Apr 24, 2018 17:00 13.9 0.0 68.8
Tue, Apr 24, 2018 16:00 15.7 0.0 53.0
Tue, Apr 24, 2018 15:00 17.2 0.0 42.8
Tue, Apr 24, 2018 14:00 18.3 0.0 39.5
Tue, Apr 24, 2018 13:00 18.1 0.0 38.5
Tue, Apr 24, 2018 12:00 16.8 0.0 42.8
Tue, Apr 24, 2018 11:00 14.8 0.0 54.0
Tue, Apr 24, 2018 10:00 13.8 0.0 60.0
Tue, Apr 24, 2018 09:00 13.7 0.0 58.8
Tue, Apr 24, 2018 08:00 13.5 0.0 56.3
Tue, Apr 24, 2018 07:00 12.3 0.0 61.0
Tue, Apr 24, 2018 06:00 12.4 0.0 59.8
Tue, Apr 24, 2018 05:00 12.1 0.0 60.8
Tue, Apr 24, 2018 04:00 11.6 0.0 61.8
Tue, Apr 24, 2018 03:00 4.3 0.0 84.0
Tue, Apr 24, 2018 02:00 4.0 0.0 82.8
Tue, Apr 24, 2018 01:00 3.9 0.0 83.3
Tue, Apr 24, 2018 00:00 4.1 0.0 79.5
Mon, Apr 23, 2018 23:00 4.2 0.0 79.5
Mon, Apr 23, 2018 22:00 4.9 0.0 75.0
Mon, Apr 23, 2018 21:00 5.6 0.0 70.8
Mon, Apr 23, 2018 20:00 6.8 0.0 64.5
Mon, Apr 23, 2018 19:00 8.6 0.0 58.3
Mon, Apr 23, 2018 18:00 10.6 0.0 51.0
Mon, Apr 23, 2018 17:00 12.4 0.0 49.0
Mon, Apr 23, 2018 16:00 17.1 0.0 34.3
Mon, Apr 23, 2018 15:00 18.0 0.0 29.3
Mon, Apr 23, 2018 14:00 15.4 0.0 41.3
Mon, Apr 23, 2018 13:00 14.2 0.0 43.8
Mon, Apr 23, 2018 12:00 13.8 0.0 43.5
Mon, Apr 23, 2018 11:00 13.0 0.0 48.3
Mon, Apr 23, 2018 10:00 11.7 0.0 46.3
Mon, Apr 23, 2018 09:00 7.4 0.0 59.3
Mon, Apr 23, 2018 08:00 3.1 0.0 69.0
Mon, Apr 23, 2018 07:00 -1.1 0.0 81.5
Mon, Apr 23, 2018 06:00 -0.4 0.0 76.5
Mon, Apr 23, 2018 05:00 0.8 0.0 69.5
Mon, Apr 23, 2018 04:00 4.0 0.0 50.8
Mon, Apr 23, 2018 03:00 2.0 0.0 66.0
Mon, Apr 23, 2018 02:00 1.7 0.0 73.5
Mon, Apr 23, 2018 01:00 2.3 0.0 68.5
Mon, Apr 23, 2018 00:00 3.4 0.0 66.8
Sun, Apr 22, 2018 23:00 5.2 0.0 55.0
Sun, Apr 22, 2018 22:00 6.6 0.0 49.3
Sun, Apr 22, 2018 21:00 9.5 0.0 34.3
Sun, Apr 22, 2018 20:00 13.8 0.0 23.3
Sun, Apr 22, 2018 19:00 15.8 0.0 19.3


asterix Register now to access more data! asterix